sensor_id;sensor_type;location;lat;lon;timestamp;P1;durP1;ratioP1;P2;durP2;ratioP2
77117;SDS011;66072;50.238;19.228;2023-01-01T00:01:26;25.10;;;14.30;;
77117;SDS011;66072;50.238;19.228;2023-01-01T00:03:56;27.60;;;15.50;;
77117;SDS011;66072;50.238;19.228;2023-01-01T00:06:26;28.60;;;16.10;;
77117;SDS011;66072;50.238;19.228;2023-01-01T00:08:54;32.00;;;16.90;;
77117;SDS011;66072;50.238;19.228;2023-01-01T00:11:22;33.60;;;19.00;;
77117;SDS011;66072;50.238;19.228;2023-01-01T00:13:50;29.10;;;16.90;;
77117;SDS011;66072;50.238;19.228;2023-01-01T00:16:18;31.30;;;18.20;;
77117;SDS011;66072;50.238;19.228;2023-01-01T00:18:46;30.90;;;17.60;;
77117;SDS011;66072;50.238;19.228;2023-01-01T00:21:14;35.70;;;19.70;;
77117;SDS011;66072;50.238;19.228;2023-01-01T00:23:42;35.00;;;20.90;;
77117;SDS011;66072;50.238;19.228;2023-01-01T00:26:11;37.30;;;20.70;;
77117;SDS011;66072;50.238;19.228;2023-01-01T00:28:42;38.30;;;20.90;;
77117;SDS011;66072;50.238;19.228;2023-01-01T00:31:12;40.00;;;23.40;;
77117;SDS011;66072;50.238;19.228;2023-01-01T00:33:48;45.30;;;24.40;;
77117;SDS011;66072;50.238;19.228;2023-01-01T00:36:17;42.70;;;24.10;;
77117;SDS011;66072;50.238;19.228;2023-01-01T00:38:46;46.10;;;24.60;;
77117;SDS011;66072;50.238;19.228;2023-01-01T00:41:15;51.80;;;24.80;;
77117;SDS011;66072;50.238;19.228;2023-01-01T00:43:44;43.70;;;23.60;;
77117;SDS011;66072;50.238;19.228;2023-01-01T00:46:12;41.30;;;23.00;;
77117;SDS011;66072;50.238;19.228;2023-01-01T00:48:41;35.30;;;20.40;;
77117;SDS011;66072;50.238;19.228;2023-01-01T00:51:09;33.50;;;18.60;;
77117;SDS011;66072;50.238;19.228;2023-01-01T00:53:37;38.50;;;20.60;;
77117;SDS011;66072;50.238;19.228;2023-01-01T00:56:05;37.20;;;21.10;;
77117;SDS011;66072;50.238;19.228;2023-01-01T00:58:34;35.10;;;20.50;;
77117;SDS011;66072;50.238;19.228;2023-01-01T01:01:02;31.50;;;19.50;;
77117;SDS011;66072;50.238;19.228;2023-01-01T01:03:30;32.40;;;18.70;;
77117;SDS011;66072;50.238;19.228;2023-01-01T01:08:30;30.10;;;18.50;;
77117;SDS011;66072;50.238;19.228;2023-01-01T01:11:04;31.20;;;17.50;;
77117;SDS011;66072;50.238;19.228;2023-01-01T01:13:37;28.40;;;17.00;;
77117;SDS011;66072;50.238;19.228;2023-01-01T01:16:08;31.30;;;17.80;;
77117;SDS011;66072;50.238;19.228;2023-01-01T01:18:39;30.60;;;16.40;;
77117;SDS011;66072;50.238;19.228;2023-01-01T01:21:08;29.10;;;17.00;;
77117;SDS011;66072;50.238;19.228;2023-01-01T01:23:36;27.20;;;16.10;;
77117;SDS011;66072;50.238;19.228;2023-01-01T01:26:05;26.50;;;15.40;;
77117;SDS011;66072;50.238;19.228;2023-01-01T01:28:35;27.30;;;14.00;;
77117;SDS011;66072;50.238;19.228;2023-01-01T01:31:02;27.20;;;14.60;;
77117;SDS011;66072;50.238;19.228;2023-01-01T01:33:31;25.50;;;15.90;;
77117;SDS011;66072;50.238;19.228;2023-01-01T01:35:59;26.20;;;15.20;;
77117;SDS011;66072;50.238;19.228;2023-01-01T01:38:28;24.30;;;14.70;;
77117;SDS011;66072;50.238;19.228;2023-01-01T01:40:56;27.40;;;14.90;;
77117;SDS011;66072;50.238;19.228;2023-01-01T01:48:38;26.10;;;15.60;;
77117;SDS011;66072;50.238;19.228;2023-01-01T01:51:09;25.50;;;15.60;;
77117;SDS011;66072;50.238;19.228;2023-01-01T01:53:42;28.70;;;16.10;;
77117;SDS011;66072;50.238;19.228;2023-01-01T01:56:15;29.90;;;16.50;;
77117;SDS011;66072;50.238;19.228;2023-01-01T01:58:54;28.50;;;17.40;;
77117;SDS011;66072;50.238;19.228;2023-01-01T02:01:22;35.80;;;19.90;;
77117;SDS011;66072;50.238;19.228;2023-01-01T02:03:56;33.70;;;20.30;;
77117;SDS011;66072;50.238;19.228;2023-01-01T02:06:26;31.30;;;18.00;;
77117;SDS011;66072;50.238;19.228;2023-01-01T02:08:56;33.20;;;18.10;;
77117;SDS011;66072;50.238;19.228;2023-01-01T02:11:27;35.60;;;18.70;;
77117;SDS011;66072;50.238;19.228;2023-01-01T02:13:55;33.50;;;19.10;;
77117;SDS011;66072;50.238;19.228;2023-01-01T02:19:01;30.10;;;16.60;;
77117;SDS011;66072;50.238;19.228;2023-01-01T02:35:03;25.10;;;13.30;;
77117;SDS011;66072;50.238;19.228;2023-01-01T02:37:35;28.00;;;15.10;;
77117;SDS011;66072;50.238;19.228;2023-01-01T02:40:04;27.40;;;14.10;;
77117;SDS011;66072;50.238;19.228;2023-01-01T02:42:33;29.90;;;16.90;;
77117;SDS011;66072;50.238;19.228;2023-01-01T02:45:01;28.10;;;16.10;;
77117;SDS011;66072;50.238;19.228;2023-01-01T02:47:29;28.90;;;15.20;;
77117;SDS011;66072;50.238;19.228;2023-01-01T02:50:02;23.70;;;14.90;;
77117;SDS011;66072;50.238;19.228;2023-01-01T02:52:41;26.10;;;15.40;;
77117;SDS011;66072;50.238;19.228;2023-01-01T02:58:19;56.50;;;27.10;;
77117;SDS011;66072;50.238;19.228;2023-01-01T03:01:21;25.20;;;15.30;;
77117;SDS011;66072;50.238;19.228;2023-01-01T03:04:04;23.80;;;14.30;;
77117;SDS011;66072;50.238;19.228;2023-01-01T03:06:39;32.70;;;18.90;;
77117;SDS011;66072;50.238;19.228;2023-01-01T03:09:22;51.00;;;26.30;;
77117;SDS011;66072;50.238;19.228;2023-01-01T03:11:56;56.10;;;28.10;;
77117;SDS011;66072;50.238;19.228;2023-01-01T03:17:34;31.40;;;18.70;;
77117;SDS011;66072;50.238;19.228;2023-01-01T03:20:10;28.70;;;15.50;;
77117;SDS011;66072;50.238;19.228;2023-01-01T03:22:43;28.50;;;18.10;;
77117;SDS011;66072;50.238;19.228;2023-01-01T03:25:15;42.30;;;23.20;;
77117;SDS011;66072;50.238;19.228;2023-01-01T03:27:52;42.20;;;21.70;;
77117;SDS011;66072;50.238;19.228;2023-01-01T03:30:26;40.30;;;22.20;;
77117;SDS011;66072;50.238;19.228;2023-01-01T03:32:58;45.70;;;27.40;;
77117;SDS011;66072;50.238;19.228;2023-01-01T03:35:41;46.90;;;23.70;;
77117;SDS011;66072;50.238;19.228;2023-01-01T03:38:33;43.00;;;24.90;;
77117;SDS011;66072;50.238;19.228;2023-01-01T03:41:14;50.80;;;29.30;;
77117;SDS011;66072;50.238;19.228;2023-01-01T03:43:46;56.60;;;30.20;;
77117;SDS011;66072;50.238;19.228;2023-01-01T03:46:23;53.90;;;29.00;;
77117;SDS011;66072;50.238;19.228;2023-01-01T03:48:57;58.10;;;31.50;;
77117;SDS011;66072;50.238;19.228;2023-01-01T03:54:06;39.80;;;24.60;;
77117;SDS011;66072;50.238;19.228;2023-01-01T03:59:20;31.70;;;18.00;;
77117;SDS011;66072;50.238;19.228;2023-01-01T04:01:56;39.70;;;21.50;;
77117;SDS011;66072;50.238;19.228;2023-01-01T04:04:25;47.30;;;29.30;;
77117;SDS011;66072;50.238;19.228;2023-01-01T04:06:53;50.90;;;30.70;;
77117;SDS011;66072;50.238;19.228;2023-01-01T04:09:24;49.20;;;32.70;;
77117;SDS011;66072;50.238;19.228;2023-01-01T04:11:57;44.50;;;27.10;;
77117;SDS011;66072;50.238;19.228;2023-01-01T04:14:31;46.90;;;29.00;;
77117;SDS011;66072;50.238;19.228;2023-01-01T04:17:08;46.60;;;28.00;;
77117;SDS011;66072;50.238;19.228;2023-01-01T04:19:37;37.60;;;21.10;;
77117;SDS011;66072;50.238;19.228;2023-01-01T04:22:05;34.10;;;20.10;;
77117;SDS011;66072;50.238;19.228;2023-01-01T04:24:34;32.90;;;17.30;;
77117;SDS011;66072;50.238;19.228;2023-01-01T04:27:02;40.80;;;23.90;;
77117;SDS011;66072;50.238;19.228;2023-01-01T04:29:31;39.60;;;21.30;;
77117;SDS011;66072;50.238;19.228;2023-01-01T04:31:59;21.90;;;13.10;;
77117;SDS011;66072;50.238;19.228;2023-01-01T04:34:27;33.60;;;19.90;;
77117;SDS011;66072;50.238;19.228;2023-01-01T04:36:55;29.40;;;18.50;;
77117;SDS011;66072;50.238;19.228;2023-01-01T04:39:24;36.40;;;19.90;;
77117;SDS011;66072;50.238;19.228;2023-01-01T04:41:52;35.20;;;20.30;;
77117;SDS011;66072;50.238;19.228;2023-01-01T04:44:21;28.90;;;17.20;;
77117;SDS011;66072;50.238;19.228;2023-01-01T04:46:49;31.80;;;16.60;;
77117;SDS011;66072;50.238;19.228;2023-01-01T04:49:25;18.10;;;11.70;;
77117;SDS011;66072;50.238;19.228;2023-01-01T04:51:53;22.40;;;11.50;;
77117;SDS011;66072;50.238;19.228;2023-01-01T04:54:21;19.10;;;11.00;;
77117;SDS011;66072;50.238;19.228;2023-01-01T04:56:50;19.60;;;12.00;;
77117;SDS011;66072;50.238;19.228;2023-01-01T04:59:17;12.80;;;8.40;;
77117;SDS011;66072;50.238;19.228;2023-01-01T05:01:46;12.70;;;7.60;;
77117;SDS011;66072;50.238;19.228;2023-01-01T05:04:15;14.90;;;9.10;;
77117;SDS011;66072;50.238;19.228;2023-01-01T05:06:43;14.80;;;8.70;;
77117;SDS011;66072;50.238;19.228;2023-01-01T05:09:12;13.10;;;7.30;;
77117;SDS011;66072;50.238;19.228;2023-01-01T05:11:40;13.80;;;8.90;;
77117;SDS011;66072;50.238;19.228;2023-01-01T05:14:09;13.40;;;7.90;;
77117;SDS011;66072;50.238;19.228;2023-01-01T05:16:38;16.70;;;8.20;;
77117;SDS011;66072;50.238;19.228;2023-01-01T05:19:06;14.70;;;8.20;;
77117;SDS011;66072;50.238;19.228;2023-01-01T05:21:36;12.00;;;5.90;;
77117;SDS011;66072;50.238;19.228;2023-01-01T05:24:06;11.30;;;6.60;;
77117;SDS011;66072;50.238;19.228;2023-01-01T05:26:37;13.30;;;7.70;;
77117;SDS011;66072;50.238;19.228;2023-01-01T05:29:07;11.10;;;7.00;;
77117;SDS011;66072;50.238;19.228;2023-01-01T05:31:43;10.70;;;6.50;;
77117;SDS011;66072;50.238;19.228;2023-01-01T05:34:12;13.50;;;7.10;;
77117;SDS011;66072;50.238;19.228;2023-01-01T05:36:41;9.70;;;5.80;;
77117;SDS011;66072;50.238;19.228;2023-01-01T05:39:10;9.80;;;6.50;;
77117;SDS011;66072;50.238;19.228;2023-01-01T05:41:39;9.70;;;5.50;;
77117;SDS011;66072;50.238;19.228;2023-01-01T05:44:07;8.70;;;5.30;;
77117;SDS011;66072;50.238;19.228;2023-01-01T05:46:36;9.00;;;4.50;;
77117;SDS011;66072;50.238;19.228;2023-01-01T05:49:04;9.60;;;6.10;;
77117;SDS011;66072;50.238;19.228;2023-01-01T05:51:32;10.00;;;6.20;;
77117;SDS011;66072;50.238;19.228;2023-01-01T05:53:59;10.70;;;6.40;;
77117;SDS011;66072;50.238;19.228;2023-01-01T05:56:27;10.20;;;5.80;;
77117;SDS011;66072;50.238;19.228;2023-01-01T05:58:56;9.70;;;5.90;;
77117;SDS011;66072;50.238;19.228;2023-01-01T06:01:24;9.10;;;5.50;;
77117;SDS011;66072;50.238;19.228;2023-01-01T06:03:56;11.40;;;6.70;;
77117;SDS011;66072;50.238;19.228;2023-01-01T06:06:29;10.10;;;6.10;;
77117;SDS011;66072;50.238;19.228;2023-01-01T06:09:01;7.90;;;5.10;;
77117;SDS011;66072;50.238;19.228;2023-01-01T06:11:31;9.10;;;5.50;;
77117;SDS011;66072;50.238;19.228;2023-01-01T06:13:59;12.40;;;7.00;;
77117;SDS011;66072;50.238;19.228;2023-01-01T06:16:30;10.60;;;5.70;;
77117;SDS011;66072;50.238;19.228;2023-01-01T06:18:58;9.50;;;5.70;;
77117;SDS011;66072;50.238;19.228;2023-01-01T06:21:27;12.40;;;6.90;;
77117;SDS011;66072;50.238;19.228;2023-01-01T06:23:56;10.30;;;6.00;;
77117;SDS011;66072;50.238;19.228;2023-01-01T06:26:27;10.50;;;5.40;;
77117;SDS011;66072;50.238;19.228;2023-01-01T06:28:57;8.30;;;5.10;;
77117;SDS011;66072;50.238;19.228;2023-01-01T06:31:27;12.20;;;6.40;;
77117;SDS011;66072;50.238;19.228;2023-01-01T06:34:01;10.10;;;5.70;;
77117;SDS011;66072;50.238;19.228;2023-01-01T06:36:29;7.60;;;4.30;;
77117;SDS011;66072;50.238;19.228;2023-01-01T06:38:57;9.30;;;5.90;;
77117;SDS011;66072;50.238;19.228;2023-01-01T06:41:26;10.60;;;5.70;;
77117;SDS011;66072;50.238;19.228;2023-01-01T06:43:54;9.30;;;5.40;;
77117;SDS011;66072;50.238;19.228;2023-01-01T06:46:24;10.60;;;5.90;;
77117;SDS011;66072;50.238;19.228;2023-01-01T06:48:55;9.80;;;6.20;;
77117;SDS011;66072;50.238;19.228;2023-01-01T06:51:29;6.60;;;4.70;;
77117;SDS011;66072;50.238;19.228;2023-01-01T06:54:00;10.90;;;5.90;;
77117;SDS011;66072;50.238;19.228;2023-01-01T06:56:28;8.40;;;5.80;;
77117;SDS011;66072;50.238;19.228;2023-01-01T06:58:57;9.70;;;5.30;;
77117;SDS011;66072;50.238;19.228;2023-01-01T07:01:27;8.70;;;5.30;;
77117;SDS011;66072;50.238;19.228;2023-01-01T07:04:01;9.00;;;5.50;;
77117;SDS011;66072;50.238;19.228;2023-01-01T07:06:31;9.10;;;5.60;;
77117;SDS011;66072;50.238;19.228;2023-01-01T07:09:00;11.10;;;6.10;;
77117;SDS011;66072;50.238;19.228;2023-01-01T07:11:29;8.10;;;5.00;;
77117;SDS011;66072;50.238;19.228;2023-01-01T07:13:57;8.90;;;5.30;;
77117;SDS011;66072;50.238;19.228;2023-01-01T07:16:25;9.40;;;5.30;;
77117;SDS011;66072;50.238;19.228;2023-01-01T07:18:54;7.10;;;5.10;;
77117;SDS011;66072;50.238;19.228;2023-01-01T07:24:04;8.60;;;4.70;;
77117;SDS011;66072;50.238;19.228;2023-01-01T07:26:32;8.10;;;4.50;;
77117;SDS011;66072;50.238;19.228;2023-01-01T07:29:00;8.80;;;5.10;;
77117;SDS011;66072;50.238;19.228;2023-01-01T07:31:35;7.20;;;4.50;;
77117;SDS011;66072;50.238;19.228;2023-01-01T07:34:05;7.40;;;4.20;;
77117;SDS011;66072;50.238;19.228;2023-01-01T07:36:36;6.40;;;3.50;;
77117;SDS011;66072;50.238;19.228;2023-01-01T07:39:04;7.20;;;3.80;;
77117;SDS011;66072;50.238;19.228;2023-01-01T07:41:32;8.50;;;4.90;;
77117;SDS011;66072;50.238;19.228;2023-01-01T07:44:00;9.10;;;4.10;;
77117;SDS011;66072;50.238;19.228;2023-01-01T07:46:29;7.10;;;3.80;;
77117;SDS011;66072;50.238;19.228;2023-01-01T07:48:57;6.60;;;4.10;;
77117;SDS011;66072;50.238;19.228;2023-01-01T07:51:25;8.00;;;4.70;;
77117;SDS011;66072;50.238;19.228;2023-01-01T07:53:53;8.30;;;4.00;;
77117;SDS011;66072;50.238;19.228;2023-01-01T07:56:20;6.40;;;4.30;;
77117;SDS011;66072;50.238;19.228;2023-01-01T07:58:49;6.80;;;4.00;;
77117;SDS011;66072;50.238;19.228;2023-01-01T08:01:17;6.90;;;4.00;;
77117;SDS011;66072;50.238;19.228;2023-01-01T08:03:49;8.80;;;4.60;;
77117;SDS011;66072;50.238;19.228;2023-01-01T08:06:17;9.50;;;5.20;;
77117;SDS011;66072;50.238;19.228;2023-01-01T08:08:46;9.20;;;4.90;;
77117;SDS011;66072;50.238;19.228;2023-01-01T08:11:13;6.50;;;4.00;;
77117;SDS011;66072;50.238;19.228;2023-01-01T08:13:41;7.50;;;4.30;;
77117;SDS011;66072;50.238;19.228;2023-01-01T08:16:10;9.00;;;5.10;;
77117;SDS011;66072;50.238;19.228;2023-01-01T08:18:38;7.40;;;4.40;;
77117;SDS011;66072;50.238;19.228;2023-01-01T08:21:06;9.10;;;4.90;;
77117;SDS011;66072;50.238;19.228;2023-01-01T08:23:34;8.50;;;4.70;;
77117;SDS011;66072;50.238;19.228;2023-01-01T08:26:02;8.70;;;4.20;;
77117;SDS011;66072;50.238;19.228;2023-01-01T08:28:30;11.00;;;5.90;;
77117;SDS011;66072;50.238;19.228;2023-01-01T08:30:58;9.40;;;5.40;;
77117;SDS011;66072;50.238;19.228;2023-01-01T08:33:26;9.40;;;5.10;;
77117;SDS011;66072;50.238;19.228;2023-01-01T08:35:54;12.30;;;6.20;;
77117;SDS011;66072;50.238;19.228;2023-01-01T08:38:22;9.80;;;5.80;;
77117;SDS011;66072;50.238;19.228;2023-01-01T08:40:50;9.20;;;5.90;;
77117;SDS011;66072;50.238;19.228;2023-01-01T08:43:18;9.10;;;5.50;;
77117;SDS011;66072;50.238;19.228;2023-01-01T08:45:46;6.00;;;3.70;;
77117;SDS011;66072;50.238;19.228;2023-01-01T08:48:14;7.80;;;4.80;;
77117;SDS011;66072;50.238;19.228;2023-01-01T08:50:42;8.10;;;4.50;;
77117;SDS011;66072;50.238;19.228;2023-01-01T08:53:10;9.70;;;5.90;;
77117;SDS011;66072;50.238;19.228;2023-01-01T08:55:38;10.60;;;4.60;;
77117;SDS011;66072;50.238;19.228;2023-01-01T08:58:06;8.40;;;4.90;;
77117;SDS011;66072;50.238;19.228;2023-01-01T09:00:34;10.40;;;5.20;;
77117;SDS011;66072;50.238;19.228;2023-01-01T09:03:02;9.60;;;5.80;;
77117;SDS011;66072;50.238;19.228;2023-01-01T09:05:30;9.80;;;5.90;;
77117;SDS011;66072;50.238;19.228;2023-01-01T09:07:58;9.60;;;6.00;;
77117;SDS011;66072;50.238;19.228;2023-01-01T09:10:26;9.20;;;5.20;;
77117;SDS011;66072;50.238;19.228;2023-01-01T09:12:54;7.90;;;4.60;;
77117;SDS011;66072;50.238;19.228;2023-01-01T09:15:22;9.70;;;5.70;;
77117;SDS011;66072;50.238;19.228;2023-01-01T09:17:50;10.00;;;5.90;;
77117;SDS011;66072;50.238;19.228;2023-01-01T09:20:18;11.20;;;5.50;;
77117;SDS011;66072;50.238;19.228;2023-01-01T09:22:46;10.40;;;6.10;;
77117;SDS011;66072;50.238;19.228;2023-01-01T09:25:14;9.30;;;5.50;;
77117;SDS011;66072;50.238;19.228;2023-01-01T09:27:42;9.40;;;5.30;;
77117;SDS011;66072;50.238;19.228;2023-01-01T09:30:10;9.70;;;5.50;;
77117;SDS011;66072;50.238;19.228;2023-01-01T09:32:38;9.00;;;5.20;;
77117;SDS011;66072;50.238;19.228;2023-01-01T09:35:08;10.00;;;5.80;;
77117;SDS011;66072;50.238;19.228;2023-01-01T09:37:37;8.60;;;5.00;;
77117;SDS011;66072;50.238;19.228;2023-01-01T09:40:05;7.60;;;5.20;;
77117;SDS011;66072;50.238;19.228;2023-01-01T09:42:35;9.60;;;5.10;;
77117;SDS011;66072;50.238;19.228;2023-01-01T09:47:59;10.40;;;5.20;;
77117;SDS011;66072;50.238;19.228;2023-01-01T09:50:39;9.60;;;4.90;;
77117;SDS011;66072;50.238;19.228;2023-01-01T09:56:04;7.20;;;4.60;;
77117;SDS011;66072;50.238;19.228;2023-01-01T09:58:33;7.70;;;4.40;;
77117;SDS011;66072;50.238;19.228;2023-01-01T10:03:52;8.50;;;5.10;;
77117;SDS011;66072;50.238;19.228;2023-01-01T10:06:32;8.20;;;5.50;;
77117;SDS011;66072;50.238;19.228;2023-01-01T10:09:08;9.50;;;5.80;;
77117;SDS011;66072;50.238;19.228;2023-01-01T10:12:07;8.30;;;4.70;;
77117;SDS011;66072;50.238;19.228;2023-01-01T10:14:44;8.30;;;4.50;;
77117;SDS011;66072;50.238;19.228;2023-01-01T10:20:02;8.90;;;4.90;;
77117;SDS011;66072;50.238;19.228;2023-01-01T10:22:41;7.20;;;4.10;;
77117;SDS011;66072;50.238;19.228;2023-01-01T10:30:26;8.50;;;4.80;;
77117;SDS011;66072;50.238;19.228;2023-01-01T10:32:57;7.60;;;4.50;;
77117;SDS011;66072;50.238;19.228;2023-01-01T10:35:34;8.10;;;5.00;;
77117;SDS011;66072;50.238;19.228;2023-01-01T10:38:07;7.20;;;4.20;;
77117;SDS011;66072;50.238;19.228;2023-01-01T10:40:46;7.90;;;4.30;;
77117;SDS011;66072;50.238;19.228;2023-01-01T10:43:15;7.10;;;4.50;;
77117;SDS011;66072;50.238;19.228;2023-01-01T10:45:44;10.40;;;5.00;;
77117;SDS011;66072;50.238;19.228;2023-01-01T10:48:22;8.00;;;4.50;;
77117;SDS011;66072;50.238;19.228;2023-01-01T10:50:57;9.00;;;5.00;;
77117;SDS011;66072;50.238;19.228;2023-01-01T10:56:06;9.90;;;5.70;;
77117;SDS011;66072;50.238;19.228;2023-01-01T10:58:56;8.80;;;4.70;;
77117;SDS011;66072;50.238;19.228;2023-01-01T11:01:26;9.00;;;4.70;;
77117;SDS011;66072;50.238;19.228;2023-01-01T11:04:16;8.40;;;4.50;;
77117;SDS011;66072;50.238;19.228;2023-01-01T11:06:46;8.90;;;4.70;;
77117;SDS011;66072;50.238;19.228;2023-01-01T11:11:59;8.30;;;4.20;;
77117;SDS011;66072;50.238;19.228;2023-01-01T11:14:43;8.40;;;3.80;;
77117;SDS011;66072;50.238;19.228;2023-01-01T11:17:20;5.60;;;3.20;;
77117;SDS011;66072;50.238;19.228;2023-01-01T11:19:54;6.70;;;3.00;;
77117;SDS011;66072;50.238;19.228;2023-01-01T11:22:46;5.60;;;3.20;;
77117;SDS011;66072;50.238;19.228;2023-01-01T11:25:20;5.00;;;2.80;;
77117;SDS011;66072;50.238;19.228;2023-01-01T11:27:51;6.70;;;3.50;;
77117;SDS011;66072;50.238;19.228;2023-01-01T11:30:27;7.20;;;3.80;;
77117;SDS011;66072;50.238;19.228;2023-01-01T11:32:59;5.70;;;2.90;;
77117;SDS011;66072;50.238;19.228;2023-01-01T11:35:30;7.70;;;3.90;;
77117;SDS011;66072;50.238;19.228;2023-01-01T11:38:05;6.90;;;4.00;;
77117;SDS011;66072;50.238;19.228;2023-01-01T11:40:54;7.80;;;4.30;;
77117;SDS011;66072;50.238;19.228;2023-01-01T11:43:29;7.60;;;3.40;;
77117;SDS011;66072;50.238;19.228;2023-01-01T11:48:40;9.00;;;4.30;;
77117;SDS011;66072;50.238;19.228;2023-01-01T11:51:26;5.80;;;3.70;;
77117;SDS011;66072;50.238;19.228;2023-01-01T11:54:19;6.60;;;4.00;;
77117;SDS011;66072;50.238;19.228;2023-01-01T11:56:57;7.10;;;3.70;;
77117;SDS011;66072;50.238;19.228;2023-01-01T11:59:45;6.90;;;4.00;;
77117;SDS011;66072;50.238;19.228;2023-01-01T12:02:23;6.40;;;3.50;;
77117;SDS011;66072;50.238;19.228;2023-01-01T12:05:12;7.30;;;3.80;;
77117;SDS011;66072;50.238;19.228;2023-01-01T12:07:47;6.60;;;4.20;;
77117;SDS011;66072;50.238;19.228;2023-01-01T12:10:18;6.40;;;3.50;;
77117;SDS011;66072;50.238;19.228;2023-01-01T12:13:10;6.60;;;3.90;;
77117;SDS011;66072;50.238;19.228;2023-01-01T12:18:55;6.50;;;3.60;;
77117;SDS011;66072;50.238;19.228;2023-01-01T12:21:31;6.50;;;3.40;;
77117;SDS011;66072;50.238;19.228;2023-01-01T12:24:01;6.80;;;3.80;;
77117;SDS011;66072;50.238;19.228;2023-01-01T12:29:47;6.20;;;3.60;;
77117;SDS011;66072;50.238;19.228;2023-01-01T12:32:26;7.40;;;4.10;;
77117;SDS011;66072;50.238;19.228;2023-01-01T12:35:12;6.50;;;3.50;;
77117;SDS011;66072;50.238;19.228;2023-01-01T12:38:24;7.30;;;3.70;;
77117;SDS011;66072;50.238;19.228;2023-01-01T12:41:00;7.00;;;4.00;;
77117;SDS011;66072;50.238;19.228;2023-01-01T12:57:54;8.90;;;4.60;;
77117;SDS011;66072;50.238;19.228;2023-01-01T13:00:32;8.10;;;4.10;;
77117;SDS011;66072;50.238;19.228;2023-01-01T13:03:18;8.40;;;4.40;;
77117;SDS011;66072;50.238;19.228;2023-01-01T13:05:52;8.70;;;4.80;;
77117;SDS011;66072;50.238;19.228;2023-01-01T13:08:22;7.20;;;4.50;;
77117;SDS011;66072;50.238;19.228;2023-01-01T13:10:52;9.50;;;4.20;;
77117;SDS011;66072;50.238;19.228;2023-01-01T13:13:23;9.20;;;4.40;;
77117;SDS011;66072;50.238;19.228;2023-01-01T13:15:53;10.70;;;5.30;;
77117;SDS011;66072;50.238;19.228;2023-01-01T13:18:24;11.90;;;5.30;;
77117;SDS011;66072;50.238;19.228;2023-01-01T13:21:02;8.40;;;5.00;;
77117;SDS011;66072;50.238;19.228;2023-01-01T13:23:51;7.60;;;4.00;;
77117;SDS011;66072;50.238;19.228;2023-01-01T13:31:19;9.20;;;5.10;;
77117;SDS011;66072;50.238;19.228;2023-01-01T13:37:41;7.30;;;3.90;;
77117;SDS011;66072;50.238;19.228;2023-01-01T13:39:56;8.80;;;4.70;;
77117;SDS011;66072;50.238;19.228;2023-01-01T13:45:17;8.50;;;4.20;;
77117;SDS011;66072;50.238;19.228;2023-01-01T13:57:07;7.90;;;4.00;;
77117;SDS011;66072;50.238;19.228;2023-01-01T14:02:52;9.60;;;4.70;;
77117;SDS011;66072;50.238;19.228;2023-01-01T14:05:27;8.60;;;5.20;;
77117;SDS011;66072;50.238;19.228;2023-01-01T14:07:56;9.40;;;4.80;;
77117;SDS011;66072;50.238;19.228;2023-01-01T14:10:26;9.70;;;5.00;;
77117;SDS011;66072;50.238;19.228;2023-01-01T14:15:35;8.00;;;4.70;;
77117;SDS011;66072;50.238;19.228;2023-01-01T14:18:14;5.60;;;3.40;;
77117;SDS011;66072;50.238;19.228;2023-01-01T14:20:45;8.70;;;4.80;;
77117;SDS011;66072;50.238;19.228;2023-01-01T14:23:18;6.70;;;4.10;;
77117;SDS011;66072;50.238;19.228;2023-01-01T14:25:51;8.90;;;4.20;;
77117;SDS011;66072;50.238;19.228;2023-01-01T14:28:29;7.70;;;4.30;;
77117;SDS011;66072;50.238;19.228;2023-01-01T14:30:59;7.50;;;3.60;;
77117;SDS011;66072;50.238;19.228;2023-01-01T14:33:38;7.00;;;4.10;;
77117;SDS011;66072;50.238;19.228;2023-01-01T14:36:13;6.90;;;4.00;;
77117;SDS011;66072;50.238;19.228;2023-01-01T14:38:47;8.20;;;3.90;;
77117;SDS011;66072;50.238;19.228;2023-01-01T14:41:27;6.00;;;3.10;;
77117;SDS011;66072;50.238;19.228;2023-01-01T14:44:12;6.50;;;3.60;;
77117;SDS011;66072;50.238;19.228;2023-01-01T14:46:45;8.70;;;3.80;;
77117;SDS011;66072;50.238;19.228;2023-01-01T14:49:23;7.30;;;3.60;;
77117;SDS011;66072;50.238;19.228;2023-01-01T14:51:57;5.60;;;3.20;;
77117;SDS011;66072;50.238;19.228;2023-01-01T14:54:32;6.60;;;3.60;;
77117;SDS011;66072;50.238;19.228;2023-01-01T14:57:08;6.70;;;3.10;;
77117;SDS011;66072;50.238;19.228;2023-01-01T14:59:42;7.00;;;4.00;;
77117;SDS011;66072;50.238;19.228;2023-01-01T15:02:19;8.10;;;3.70;;
77117;SDS011;66072;50.238;19.228;2023-01-01T15:04:49;6.70;;;3.30;;
77117;SDS011;66072;50.238;19.228;2023-01-01T15:10:00;8.40;;;4.30;;
77117;SDS011;66072;50.238;19.228;2023-01-01T15:12:28;7.80;;;4.80;;
77117;SDS011;66072;50.238;19.228;2023-01-01T15:14:57;8.60;;;4.40;;
77117;SDS011;66072;50.238;19.228;2023-01-01T15:17:25;6.70;;;4.00;;
77117;SDS011;66072;50.238;19.228;2023-01-01T15:22:30;8.40;;;4.80;;
77117;SDS011;66072;50.238;19.228;2023-01-01T15:25:01;7.10;;;3.70;;
77117;SDS011;66072;50.238;19.228;2023-01-01T15:27:30;7.50;;;4.70;;
77117;SDS011;66072;50.238;19.228;2023-01-01T15:30:00;9.60;;;3.70;;
77117;SDS011;66072;50.238;19.228;2023-01-01T15:32:39;9.20;;;4.90;;
77117;SDS011;66072;50.238;19.228;2023-01-01T15:35:23;8.90;;;5.10;;
77117;SDS011;66072;50.238;19.228;2023-01-01T15:38:09;12.00;;;6.00;;
77117;SDS011;66072;50.238;19.228;2023-01-01T15:40:42;15.00;;;6.60;;
77117;SDS011;66072;50.238;19.228;2023-01-01T15:43:28;10.90;;;6.00;;
77117;SDS011;66072;50.238;19.228;2023-01-01T15:45:58;8.50;;;5.50;;
77117;SDS011;66072;50.238;19.228;2023-01-01T15:48:45;9.10;;;4.60;;
77117;SDS011;66072;50.238;19.228;2023-01-01T15:56:24;13.20;;;6.20;;
77117;SDS011;66072;50.238;19.228;2023-01-01T15:59:05;11.90;;;7.10;;
77117;SDS011;66072;50.238;19.228;2023-01-01T16:01:46;12.20;;;7.10;;
77117;SDS011;66072;50.238;19.228;2023-01-01T16:04:16;13.30;;;6.90;;
77117;SDS011;66072;50.238;19.228;2023-01-01T16:06:55;15.20;;;8.10;;
77117;SDS011;66072;50.238;19.228;2023-01-01T16:09:25;13.90;;;7.70;;
77117;SDS011;66072;50.238;19.228;2023-01-01T16:11:53;12.10;;;6.90;;
77117;SDS011;66072;50.238;19.228;2023-01-01T16:16:54;11.20;;;6.40;;
77117;SDS011;66072;50.238;19.228;2023-01-01T16:19:24;11.00;;;5.90;;
77117;SDS011;66072;50.238;19.228;2023-01-01T16:21:52;11.20;;;6.60;;
77117;SDS011;66072;50.238;19.228;2023-01-01T16:24:19;11.60;;;6.60;;
77117;SDS011;66072;50.238;19.228;2023-01-01T16:26:47;12.80;;;7.40;;
77117;SDS011;66072;50.238;19.228;2023-01-01T16:29:15;10.90;;;6.20;;
77117;SDS011;66072;50.238;19.228;2023-01-01T16:31:44;12.40;;;7.10;;
77117;SDS011;66072;50.238;19.228;2023-01-01T16:34:12;14.70;;;7.50;;
77117;SDS011;66072;50.238;19.228;2023-01-01T16:36:44;14.60;;;7.80;;
77117;SDS011;66072;50.238;19.228;2023-01-01T16:39:12;16.90;;;9.90;;
77117;SDS011;66072;50.238;19.228;2023-01-01T16:41:40;21.40;;;12.20;;
77117;SDS011;66072;50.238;19.228;2023-01-01T16:44:15;30.00;;;14.50;;
77117;SDS011;66072;50.238;19.228;2023-01-01T16:46:43;19.50;;;10.40;;
77117;SDS011;66072;50.238;19.228;2023-01-01T16:49:11;16.50;;;9.20;;
77117;SDS011;66072;50.238;19.228;2023-01-01T16:51:39;17.70;;;9.60;;
77117;SDS011;66072;50.238;19.228;2023-01-01T16:54:10;15.10;;;9.00;;